Главная страница
METAR-TAF:

METAR-TAF

Аэропорты :

Якутат, Аляска, США

широта: 59-31N, долгота: 139-40W, высота над уровнем моря: 11 м

Текущие метеонаблюдения

Эта сводка был подготовлена 49 минут назад, в 18:53 UTC
Штиль
Температура 12°C
Влажность 82%
Давление 1022 hPa
Видимость: 16.1 км
ясное небо

METAR: PAYA 181853Z AUTO 00000KT 10SM CLR 12/09 A3018 RMK AO2 SLP220 T01220089 TSNO

Время: 11:42 (19:42 UTC)

Прогноз

Эта сводка был подготовлена 2 часа и 22 минут назад, в 17:20 UTC
Прогноз действительный с 18-го 18 UTC до 19-го 18 UTC
Ветер Узел от северный
Видимость: 10 км
ясное небо
С 18-го 2100 UTC
Ветер 6 Узел от западно-северо-западный
Видимость: 10 км
Отдельные облака на высоте 25000 фута
С 19-го 0300 UTC
Ветер Узел от северный
Видимость: 10 км
небольшая облачность на высоте 25000 фута

TAF: PAYA 181720Z 1818/1918 00000KT P6SM SKC FM182100 29006KT P6SM SCT250 FM190300 00000KT P6SM FEW250 AMD LTD TO CLD VIS AND WIND

Метеонаблюдения и прогнозы для более 4000 аэропортов (сводки METAR и TAF).

Имеющиеся станции представлены на карте желтыми и красными точками.

Чтобы увидеть название станции, наведите на нее мышь.

Затем щелкните, чтобы увидеть метеонаблюдения и метеопрогнозы.

Управление картой: чтобы увеличить масштаб, щелкните зеленые кнопки с черным крестиком; чтобы уменьшить масштаб, щелкните зеленую кнопку с тире; для просмотра соседних карт щелкайте зеленые стрелки.


METAR-TAF: